<?xml version="1.0" encoding="UTF-8" standalone="no" ?>
<gpx xmlns="http://www.topografix.com/GPX/1/1" xmlns:xsi="http://www.w3.org/2001/XMLSchema-instance" xsi:schemaLocation="http://www.topografix.com/GPX/1/1 http://www.topografix.com/GPX/1/1/gpx.xsd" version="1.1" creator="VisuGPX - https://www.visugpx.com">
  <metadata>
    <name>GR8S3_LesSableStMichelHerm</name>
    <desc><![CDATA[gnerando idor: 12420312_12420320_12420354_12420365]]></desc>
  </metadata>
  <trk>
    <name><![CDATA[GR8S3J1_LesSablesTalmont_21.6km-12420312]]></name>
    <extensions>
      <line xmlns="http://www.topografix.com/GPX/gpx_style/0/2">
        <color>FF0000</color>
        <width>4</width>
      </line>
    </extensions>
    <trkseg>
      <trkpt lat="46.48958" lon="-1.79796">
        <ele>8</ele>
        <time>2023-10-30T14:38:03Z</time>
      </trkpt>
      <trkpt lat="46.48939" lon="-1.79689">
        <ele>7</ele>
        <time>2023-10-30T14:39:45Z</time>
      </trkpt>
      <trkpt lat="46.48963" lon="-1.79616">
        <ele>9</ele>
        <time>2023-10-30T14:40:59Z</time>
      </trkpt>
      <trkpt lat="46.49034" lon="-1.79562">
        <ele>11</ele>
        <time>2023-10-30T14:42:46Z</time>
      </trkpt>
      <trkpt lat="46.49097" lon="-1.79468">
        <ele>8</ele>
        <time>2023-10-30T14:44:46Z</time>
      </trkpt>
      <trkpt lat="46.49187" lon="-1.7953">
        <ele>8</ele>
        <time>2023-10-30T14:46:59Z</time>
      </trkpt>
      <trkpt lat="46.49214" lon="-1.7953">
        <ele>8</ele>
        <time>2023-10-30T14:47:35Z</time>
      </trkpt>
      <trkpt lat="46.49263" lon="-1.795">
        <ele>7</ele>
        <time>2023-10-30T14:48:46Z</time>
      </trkpt>
      <trkpt lat="46.49502" lon="-1.7961">
        <ele>5</ele>
        <time>2023-10-30T14:54:21Z</time>
      </trkpt>
      <trkpt lat="46.49673" lon="-1.7964">
        <ele>4</ele>
        <time>2023-10-30T14:58:11Z</time>
      </trkpt>
      <trkpt lat="46.49619" lon="-1.79494">
        <ele>1</ele>
        <time>2023-10-30T15:00:43Z</time>
      </trkpt>
      <trkpt lat="46.49586" lon="-1.79513">
        <ele>3</ele>
        <time>2023-10-30T15:01:30Z</time>
      </trkpt>
      <trkpt lat="46.49463" lon="-1.79455">
        <ele>6</ele>
        <time>2023-10-30T15:04:23Z</time>
      </trkpt>
      <trkpt lat="46.49403" lon="-1.79391">
        <ele>6</ele>
        <time>2023-10-30T15:06:02Z</time>
      </trkpt>
      <trkpt lat="46.49342" lon="-1.79268">
        <ele>8</ele>
        <time>2023-10-30T15:08:21Z</time>
      </trkpt>
      <trkpt lat="46.49461" lon="-1.79135">
        <ele>10</ele>
        <time>2023-10-30T15:11:42Z</time>
      </trkpt>
      <trkpt lat="46.49455" lon="-1.7835">
        <ele>7</ele>
        <time>2023-10-30T15:23:43Z</time>
      </trkpt>
      <trkpt lat="46.49396" lon="-1.78052">
        <ele>9</ele>
        <time>2023-10-30T15:28:28Z</time>
      </trkpt>
      <trkpt lat="46.49302" lon="-1.77773">
        <ele>7</ele>
        <time>2023-10-30T15:33:13Z</time>
      </trkpt>
      <trkpt lat="46.49223" lon="-1.77623">
        <ele>7</ele>
        <time>2023-10-30T15:36:07Z</time>
      </trkpt>
      <trkpt lat="46.49112" lon="-1.77455">
        <ele>5</ele>
        <time>2023-10-30T15:39:41Z</time>
      </trkpt>
      <trkpt lat="46.48899" lon="-1.76964">
        <ele>7</ele>
        <time>2023-10-30T15:48:34Z</time>
      </trkpt>
      <trkpt lat="46.48494" lon="-1.76593">
        <ele>7</ele>
        <time>2023-10-30T15:59:13Z</time>
      </trkpt>
      <trkpt lat="46.48107" lon="-1.76131">
        <ele>5</ele>
        <time>2023-10-30T16:10:21Z</time>
      </trkpt>
      <trkpt lat="46.48029" lon="-1.76071">
        <ele>5</ele>
        <time>2023-10-30T16:12:19Z</time>
      </trkpt>
      <trkpt lat="46.47874" lon="-1.76015">
        <ele>8</ele>
        <time>2023-10-30T16:15:52Z</time>
      </trkpt>
      <trkpt lat="46.47806" lon="-1.75968">
        <ele>8</ele>
        <time>2023-10-30T16:17:33Z</time>
      </trkpt>
      <trkpt lat="46.47742" lon="-1.75891">
        <ele>8</ele>
        <time>2023-10-30T16:19:24Z</time>
      </trkpt>
      <trkpt lat="46.47671" lon="-1.75777">
        <ele>8</ele>
        <time>2023-10-30T16:21:45Z</time>
      </trkpt>
      <trkpt lat="46.47562" lon="-1.75653">
        <ele>8</ele>
        <time>2023-10-30T16:24:50Z</time>
      </trkpt>
      <trkpt lat="46.47519" lon="-1.7558">
        <ele>7</ele>
        <time>2023-10-30T16:26:18Z</time>
      </trkpt>
      <trkpt lat="46.47479" lon="-1.75331">
        <ele>7</ele>
        <time>2023-10-30T16:30:13Z</time>
      </trkpt>
      <trkpt lat="46.47368" lon="-1.74822">
        <ele>10</ele>
        <time>2023-10-30T16:38:24Z</time>
      </trkpt>
      <trkpt lat="46.46997" lon="-1.74198">
        <ele>9</ele>
        <time>2023-10-30T16:51:01Z</time>
      </trkpt>
      <trkpt lat="46.46903" lon="-1.74157">
        <ele>5</ele>
        <time>2023-10-30T16:53:12Z</time>
      </trkpt>
      <trkpt lat="46.46862" lon="-1.74054">
        <ele>6</ele>
        <time>2023-10-30T16:55:02Z</time>
      </trkpt>
      <trkpt lat="46.46823" lon="-1.7387">
        <ele>5</ele>
        <time>2023-10-30T16:57:59Z</time>
      </trkpt>
      <trkpt lat="46.46848" lon="-1.73745">
        <ele>5</ele>
        <time>2023-10-30T16:59:58Z</time>
      </trkpt>
      <trkpt lat="46.46826" lon="-1.73698">
        <ele>5</ele>
        <time>2023-10-30T17:00:50Z</time>
      </trkpt>
      <trkpt lat="46.46799" lon="-1.73677">
        <ele>5</ele>
        <time>2023-10-30T17:01:31Z</time>
      </trkpt>
      <trkpt lat="46.46854" lon="-1.73542">
        <ele>10</ele>
        <time>2023-10-30T17:03:55Z</time>
      </trkpt>
      <trkpt lat="46.4682" lon="-1.73495">
        <ele>12</ele>
        <time>2023-10-30T17:04:58Z</time>
      </trkpt>
      <trkpt lat="46.46774" lon="-1.73252">
        <ele>16</ele>
        <time>2023-10-30T17:08:50Z</time>
      </trkpt>
      <trkpt lat="46.46772" lon="-1.73128">
        <ele>18</ele>
        <time>2023-10-30T17:10:44Z</time>
      </trkpt>
      <trkpt lat="46.46762" lon="-1.73068">
        <ele>19</ele>
        <time>2023-10-30T17:11:41Z</time>
      </trkpt>
      <trkpt lat="46.4678" lon="-1.73044">
        <ele>20</ele>
        <time>2023-10-30T17:12:13Z</time>
      </trkpt>
      <trkpt lat="46.46781" lon="-1.72905">
        <ele>21</ele>
        <time>2023-10-30T17:14:21Z</time>
      </trkpt>
      <trkpt lat="46.46753" lon="-1.72881">
        <ele>20</ele>
        <time>2023-10-30T17:15:04Z</time>
      </trkpt>
      <trkpt lat="46.46735" lon="-1.7278">
        <ele>22</ele>
        <time>2023-10-30T17:16:40Z</time>
      </trkpt>
      <trkpt lat="46.46707" lon="-1.72741">
        <ele>23</ele>
        <time>2023-10-30T17:17:32Z</time>
      </trkpt>
      <trkpt lat="46.46651" lon="-1.72705">
        <ele>21</ele>
        <time>2023-10-30T17:18:54Z</time>
      </trkpt>
      <trkpt lat="46.46583" lon="-1.72574">
        <ele>22</ele>
        <time>2023-10-30T17:21:24Z</time>
      </trkpt>
      <trkpt lat="46.46528" lon="-1.72634">
        <ele>21</ele>
        <time>2023-10-30T17:22:56Z</time>
      </trkpt>
      <trkpt lat="46.46489" lon="-1.72525">
        <ele>23</ele>
        <time>2023-10-30T17:24:49Z</time>
      </trkpt>
      <trkpt lat="46.46409" lon="-1.72576">
        <ele>22</ele>
        <time>2023-10-30T17:26:46Z</time>
      </trkpt>
      <trkpt lat="46.4636" lon="-1.72323">
        <ele>25</ele>
        <time>2023-10-30T17:30:47Z</time>
      </trkpt>
      <trkpt lat="46.46218" lon="-1.72409">
        <ele>27</ele>
        <time>2023-10-30T17:34:13Z</time>
      </trkpt>
      <trkpt lat="46.46098" lon="-1.72546">
        <ele>14</ele>
        <time>2023-10-30T17:37:36Z</time>
      </trkpt>
      <trkpt lat="46.46054" lon="-1.7251">
        <ele>15</ele>
        <time>2023-10-30T17:38:44Z</time>
      </trkpt>
      <trkpt lat="46.4598" lon="-1.72506">
        <ele>10</ele>
        <time>2023-10-30T17:40:23Z</time>
      </trkpt>
      <trkpt lat="46.45936" lon="-1.7246">
        <ele>8</ele>
        <time>2023-10-30T17:41:35Z</time>
      </trkpt>
      <trkpt lat="46.45885" lon="-1.7233">
        <ele>9</ele>
        <time>2023-10-30T17:43:52Z</time>
      </trkpt>
      <trkpt lat="46.45832" lon="-1.72269">
        <ele>6</ele>
        <time>2023-10-30T17:45:23Z</time>
      </trkpt>
      <trkpt lat="46.458" lon="-1.72182">
        <ele>5</ele>
        <time>2023-10-30T17:46:53Z</time>
      </trkpt>
      <trkpt lat="46.45816" lon="-1.72147">
        <ele>5</ele>
        <time>2023-10-30T17:47:32Z</time>
      </trkpt>
      <trkpt lat="46.45874" lon="-1.72164">
        <ele>11</ele>
        <time>2023-10-30T17:48:51Z</time>
      </trkpt>
      <trkpt lat="46.45915" lon="-1.72104">
        <ele>10</ele>
        <time>2023-10-30T17:50:09Z</time>
      </trkpt>
      <trkpt lat="46.45933" lon="-1.7201">
        <ele>9</ele>
        <time>2023-10-30T17:51:38Z</time>
      </trkpt>
      <trkpt lat="46.45927" lon="-1.719">
        <ele>9</ele>
        <time>2023-10-30T17:53:20Z</time>
      </trkpt>
      <trkpt lat="46.45951" lon="-1.71761">
        <ele>11</ele>
        <time>2023-10-30T17:55:32Z</time>
      </trkpt>
      <trkpt lat="46.45937" lon="-1.7172">
        <ele>9</ele>
        <time>2023-10-30T17:56:14Z</time>
      </trkpt>
      <trkpt lat="46.45906" lon="-1.71688">
        <ele>6</ele>
        <time>2023-10-30T17:57:04Z</time>
      </trkpt>
      <trkpt lat="46.45897" lon="-1.71574">
        <ele>8</ele>
        <time>2023-10-30T17:58:50Z</time>
      </trkpt>
      <trkpt lat="46.45903" lon="-1.7151">
        <ele>6</ele>
        <time>2023-10-30T17:59:49Z</time>
      </trkpt>
      <trkpt lat="46.45921" lon="-1.71473">
        <ele>6</ele>
        <time>2023-10-30T18:00:31Z</time>
      </trkpt>
      <trkpt lat="46.4589" lon="-1.71388">
        <ele>5</ele>
        <time>2023-10-30T18:01:59Z</time>
      </trkpt>
      <trkpt lat="46.45769" lon="-1.71308">
        <ele>8</ele>
        <time>2023-10-30T18:04:57Z</time>
      </trkpt>
      <trkpt lat="46.4569" lon="-1.71233">
        <ele>11</ele>
        <time>2023-10-30T18:07:03Z</time>
      </trkpt>
      <trkpt lat="46.45618" lon="-1.71199">
        <ele>11</ele>
        <time>2023-10-30T18:08:44Z</time>
      </trkpt>
      <trkpt lat="46.45442" lon="-1.71141">
        <ele>8</ele>
        <time>2023-10-30T18:12:45Z</time>
      </trkpt>
      <trkpt lat="46.45383" lon="-1.71053">
        <ele>9</ele>
        <time>2023-10-30T18:14:37Z</time>
      </trkpt>
      <trkpt lat="46.45309" lon="-1.71033">
        <ele>10</ele>
        <time>2023-10-30T18:16:18Z</time>
      </trkpt>
      <trkpt lat="46.45237" lon="-1.71085">
        <ele>6</ele>
        <time>2023-10-30T18:18:05Z</time>
      </trkpt>
      <trkpt lat="46.45188" lon="-1.71083">
        <ele>5</ele>
        <time>2023-10-30T18:19:11Z</time>
      </trkpt>
      <trkpt lat="46.45145" lon="-1.71044">
        <ele>5</ele>
        <time>2023-10-30T18:20:18Z</time>
      </trkpt>
      <trkpt lat="46.45115" lon="-1.70761">
        <ele>8</ele>
        <time>2023-10-30T18:24:42Z</time>
      </trkpt>
      <trkpt lat="46.45093" lon="-1.70628">
        <ele>11</ele>
        <time>2023-10-30T18:26:47Z</time>
      </trkpt>
      <trkpt lat="46.45072" lon="-1.70585">
        <ele>11</ele>
        <time>2023-10-30T18:27:36Z</time>
      </trkpt>
      <trkpt lat="46.45025" lon="-1.70615">
        <ele>6</ele>
        <time>2023-10-30T18:28:44Z</time>
      </trkpt>
      <trkpt lat="46.44999" lon="-1.70598">
        <ele>5</ele>
        <time>2023-10-30T18:29:22Z</time>
      </trkpt>
      <trkpt lat="46.44969" lon="-1.70516">
        <ele>8</ele>
        <time>2023-10-30T18:30:48Z</time>
      </trkpt>
      <trkpt lat="46.44922" lon="-1.70474">
        <ele>6</ele>
        <time>2023-10-30T18:32:01Z</time>
      </trkpt>
      <trkpt lat="46.4487" lon="-1.70295">
        <ele>8</ele>
        <time>2023-10-30T18:35:00Z</time>
      </trkpt>
      <trkpt lat="46.44843" lon="-1.70231">
        <ele>7</ele>
        <time>2023-10-30T18:36:09Z</time>
      </trkpt>
      <trkpt lat="46.44831" lon="-1.70158">
        <ele>8</ele>
        <time>2023-10-30T18:37:18Z</time>
      </trkpt>
      <trkpt lat="46.44794" lon="-1.70104">
        <ele>6</ele>
        <time>2023-10-30T18:38:28Z</time>
      </trkpt>
      <trkpt lat="46.4475" lon="-1.69856">
        <ele>8</ele>
        <time>2023-10-30T18:42:23Z</time>
      </trkpt>
      <trkpt lat="46.44732" lon="-1.69797">
        <ele>7</ele>
        <time>2023-10-30T18:43:23Z</time>
      </trkpt>
      <trkpt lat="46.44768" lon="-1.69742">
        <ele>10</ele>
        <time>2023-10-30T18:44:33Z</time>
      </trkpt>
      <trkpt lat="46.44762" lon="-1.69669">
        <ele>8</ele>
        <time>2023-10-30T18:45:40Z</time>
      </trkpt>
      <trkpt lat="46.44715" lon="-1.69579">
        <ele>8</ele>
        <time>2023-10-30T18:47:24Z</time>
      </trkpt>
      <trkpt lat="46.44567" lon="-1.69461">
        <ele>7</ele>
        <time>2023-10-30T18:51:09Z</time>
      </trkpt>
      <trkpt lat="46.44517" lon="-1.69433">
        <ele>6</ele>
        <time>2023-10-30T18:52:21Z</time>
      </trkpt>
      <trkpt lat="46.44466" lon="-1.69274">
        <ele>9</ele>
        <time>2023-10-30T18:55:02Z</time>
      </trkpt>
      <trkpt lat="46.44369" lon="-1.69124">
        <ele>7</ele>
        <time>2023-10-30T18:58:11Z</time>
      </trkpt>
      <trkpt lat="46.44344" lon="-1.69014">
        <ele>9</ele>
        <time>2023-10-30T18:59:58Z</time>
      </trkpt>
      <trkpt lat="46.4436" lon="-1.68954">
        <ele>13</ele>
        <time>2023-10-30T19:00:57Z</time>
      </trkpt>
      <trkpt lat="46.44327" lon="-1.68907">
        <ele>12</ele>
        <time>2023-10-30T19:01:59Z</time>
      </trkpt>
      <trkpt lat="46.44292" lon="-1.68821">
        <ele>10</ele>
        <time>2023-10-30T19:03:30Z</time>
      </trkpt>
      <trkpt lat="46.44264" lon="-1.68868">
        <ele>5</ele>
        <time>2023-10-30T19:04:28Z</time>
      </trkpt>
      <trkpt lat="46.44264" lon="-1.68791">
        <ele>6</ele>
        <time>2023-10-30T19:05:38Z</time>
      </trkpt>
      <trkpt lat="46.44277" lon="-1.6875">
        <ele>8</ele>
        <time>2023-10-30T19:06:20Z</time>
      </trkpt>
      <trkpt lat="46.44218" lon="-1.68493">
        <ele>8</ele>
        <time>2023-10-30T19:10:29Z</time>
      </trkpt>
      <trkpt lat="46.44213" lon="-1.68401">
        <ele>9</ele>
        <time>2023-10-30T19:11:54Z</time>
      </trkpt>
      <trkpt lat="46.44202" lon="-1.68317">
        <ele>8</ele>
        <time>2023-10-30T19:13:12Z</time>
      </trkpt>
      <trkpt lat="46.44162" lon="-1.6824">
        <ele>5</ele>
        <time>2023-10-30T19:14:41Z</time>
      </trkpt>
      <trkpt lat="46.44145" lon="-1.68195">
        <ele>5</ele>
        <time>2023-10-30T19:15:28Z</time>
      </trkpt>
      <trkpt lat="46.44125" lon="-1.68083">
        <ele>5</ele>
        <time>2023-10-30T19:17:15Z</time>
      </trkpt>
      <trkpt lat="46.44142" lon="-1.67911">
        <ele>9</ele>
        <time>2023-10-30T19:19:55Z</time>
      </trkpt>
      <trkpt lat="46.44126" lon="-1.67841">
        <ele>7</ele>
        <time>2023-10-30T19:21:02Z</time>
      </trkpt>
      <trkpt lat="46.44126" lon="-1.67796">
        <ele>7</ele>
        <time>2023-10-30T19:21:44Z</time>
      </trkpt>
      <trkpt lat="46.4411" lon="-1.67708">
        <ele>7</ele>
        <time>2023-10-30T19:23:07Z</time>
      </trkpt>
      <trkpt lat="46.44076" lon="-1.67628">
        <ele>6</ele>
        <time>2023-10-30T19:24:34Z</time>
      </trkpt>
      <trkpt lat="46.44074" lon="-1.67602">
        <ele>7</ele>
        <time>2023-10-30T19:24:58Z</time>
      </trkpt>
      <trkpt lat="46.44094" lon="-1.67572">
        <ele>9</ele>
        <time>2023-10-30T19:25:36Z</time>
      </trkpt>
      <trkpt lat="46.44033" lon="-1.67523">
        <ele>7</ele>
        <time>2023-10-30T19:27:09Z</time>
      </trkpt>
      <trkpt lat="46.43804" lon="-1.67226">
        <ele>4</ele>
        <time>2023-10-30T19:33:59Z</time>
      </trkpt>
      <trkpt lat="46.43839" lon="-1.6717">
        <ele>7</ele>
        <time>2023-10-30T19:35:09Z</time>
      </trkpt>
      <trkpt lat="46.43856" lon="-1.67046">
        <ele>11</ele>
        <time>2023-10-30T19:37:05Z</time>
      </trkpt>
      <trkpt lat="46.43817" lon="-1.67009">
        <ele>7</ele>
        <time>2023-10-30T19:38:07Z</time>
      </trkpt>
      <trkpt lat="46.43791" lon="-1.66964">
        <ele>5</ele>
        <time>2023-10-30T19:39:01Z</time>
      </trkpt>
      <trkpt lat="46.43795" lon="-1.66754">
        <ele>5</ele>
        <time>2023-10-30T19:42:14Z</time>
      </trkpt>
      <trkpt lat="46.43764" lon="-1.66644">
        <ele>5</ele>
        <time>2023-10-30T19:44:04Z</time>
      </trkpt>
      <trkpt lat="46.4366" lon="-1.66488">
        <ele>4</ele>
        <time>2023-10-30T19:47:23Z</time>
      </trkpt>
      <trkpt lat="46.43604" lon="-1.66423">
        <ele>4</ele>
        <time>2023-10-30T19:48:59Z</time>
      </trkpt>
      <trkpt lat="46.43587" lon="-1.66289">
        <ele>12</ele>
        <time>2023-10-30T19:51:04Z</time>
      </trkpt>
      <trkpt lat="46.4355" lon="-1.6622">
        <ele>11</ele>
        <time>2023-10-30T19:52:25Z</time>
      </trkpt>
      <trkpt lat="46.4355" lon="-1.66128">
        <ele>13</ele>
        <time>2023-10-30T19:53:49Z</time>
      </trkpt>
      <trkpt lat="46.43513" lon="-1.66065">
        <ele>13</ele>
        <time>2023-10-30T19:55:05Z</time>
      </trkpt>
      <trkpt lat="46.43545" lon="-1.65883">
        <ele>12</ele>
        <time>2023-10-30T19:57:58Z</time>
      </trkpt>
      <trkpt lat="46.43609" lon="-1.65883">
        <ele>16</ele>
        <time>2023-10-30T19:59:24Z</time>
      </trkpt>
      <trkpt lat="46.43684" lon="-1.65868">
        <ele>18</ele>
        <time>2023-10-30T20:01:05Z</time>
      </trkpt>
      <trkpt lat="46.43739" lon="-1.659">
        <ele>18</ele>
        <time>2023-10-30T20:02:24Z</time>
      </trkpt>
      <trkpt lat="46.43828" lon="-1.65987">
        <ele>15</ele>
        <time>2023-10-30T20:04:47Z</time>
      </trkpt>
      <trkpt lat="46.43977" lon="-1.66241">
        <ele>12</ele>
        <time>2023-10-30T20:09:54Z</time>
      </trkpt>
      <trkpt lat="46.44" lon="-1.66204">
        <ele>14</ele>
        <time>2023-10-30T20:10:39Z</time>
      </trkpt>
      <trkpt lat="46.44032" lon="-1.66022">
        <ele>15</ele>
        <time>2023-10-30T20:13:32Z</time>
      </trkpt>
      <trkpt lat="46.43999" lon="-1.65756">
        <ele>16</ele>
        <time>2023-10-30T20:17:41Z</time>
      </trkpt>
      <trkpt lat="46.44024" lon="-1.65252">
        <ele>13</ele>
        <time>2023-10-30T20:25:25Z</time>
      </trkpt>
      <trkpt lat="46.44065" lon="-1.65249">
        <ele>7</ele>
        <time>2023-10-30T20:26:20Z</time>
      </trkpt>
      <trkpt lat="46.442" lon="-1.65126">
        <ele>1</ele>
        <time>2023-10-30T20:29:53Z</time>
      </trkpt>
      <trkpt lat="46.44277" lon="-1.65082">
        <ele>3</ele>
        <time>2023-10-30T20:31:43Z</time>
      </trkpt>
      <trkpt lat="46.44978" lon="-1.65157">
        <ele>3</ele>
        <time>2023-10-30T20:47:21Z</time>
      </trkpt>
      <trkpt lat="46.45014" lon="-1.65185">
        <ele>3</ele>
        <time>2023-10-30T20:48:16Z</time>
      </trkpt>
      <trkpt lat="46.45053" lon="-1.65282">
        <ele>5</ele>
        <time>2023-10-30T20:49:59Z</time>
      </trkpt>
      <trkpt lat="46.45101" lon="-1.65312">
        <ele>6</ele>
        <time>2023-10-30T20:51:09Z</time>
      </trkpt>
      <trkpt lat="46.45185" lon="-1.65329">
        <ele>7</ele>
        <time>2023-10-30T20:53:02Z</time>
      </trkpt>
      <trkpt lat="46.45228" lon="-1.65355">
        <ele>8</ele>
        <time>2023-10-30T20:54:04Z</time>
      </trkpt>
      <trkpt lat="46.45285" lon="-1.65326">
        <ele>9</ele>
        <time>2023-10-30T20:55:25Z</time>
      </trkpt>
      <trkpt lat="46.45322" lon="-1.65263">
        <ele>11</ele>
        <time>2023-10-30T20:56:41Z</time>
      </trkpt>
      <trkpt lat="46.45368" lon="-1.65217">
        <ele>13</ele>
        <time>2023-10-30T20:57:55Z</time>
      </trkpt>
      <trkpt lat="46.45487" lon="-1.65123">
        <ele>19</ele>
        <time>2023-10-30T21:00:56Z</time>
      </trkpt>
      <trkpt lat="46.45614" lon="-1.65069">
        <ele>22</ele>
        <time>2023-10-30T21:03:53Z</time>
      </trkpt>
      <trkpt lat="46.45553" lon="-1.64886">
        <ele>19</ele>
        <time>2023-10-30T21:07:00Z</time>
      </trkpt>
      <trkpt lat="46.45519" lon="-1.6488">
        <ele>18</ele>
        <time>2023-10-30T21:07:45Z</time>
      </trkpt>
      <trkpt lat="46.45458" lon="-1.64904">
        <ele>15</ele>
        <time>2023-10-30T21:09:10Z</time>
      </trkpt>
      <trkpt lat="46.4541" lon="-1.649">
        <ele>13</ele>
        <time>2023-10-30T21:10:14Z</time>
      </trkpt>
      <trkpt lat="46.45373" lon="-1.64811">
        <ele>12</ele>
        <time>2023-10-30T21:11:49Z</time>
      </trkpt>
      <trkpt lat="46.45319" lon="-1.64736">
        <ele>12</ele>
        <time>2023-10-30T21:13:29Z</time>
      </trkpt>
      <trkpt lat="46.45294" lon="-1.64683">
        <ele>10</ele>
        <time>2023-10-30T21:14:28Z</time>
      </trkpt>
      <trkpt lat="46.45268" lon="-1.64561">
        <ele>8</ele>
        <time>2023-10-30T21:16:26Z</time>
      </trkpt>
      <trkpt lat="46.45269" lon="-1.6441">
        <ele>8</ele>
        <time>2023-10-30T21:18:44Z</time>
      </trkpt>
      <trkpt lat="46.45237" lon="-1.64284">
        <ele>8</ele>
        <time>2023-10-30T21:20:48Z</time>
      </trkpt>
      <trkpt lat="46.45201" lon="-1.64235">
        <ele>7</ele>
        <time>2023-10-30T21:21:54Z</time>
      </trkpt>
      <trkpt lat="46.45497" lon="-1.64164">
        <ele>18</ele>
        <time>2023-10-30T21:28:34Z</time>
      </trkpt>
      <trkpt lat="46.45546" lon="-1.64122">
        <ele>19</ele>
        <time>2023-10-30T21:29:50Z</time>
      </trkpt>
      <trkpt lat="46.45594" lon="-1.64031">
        <ele>20</ele>
        <time>2023-10-30T21:31:35Z</time>
      </trkpt>
      <trkpt lat="46.45646" lon="-1.6397">
        <ele>19</ele>
        <time>2023-10-30T21:33:05Z</time>
      </trkpt>
      <trkpt lat="46.45674" lon="-1.63909">
        <ele>16</ele>
        <time>2023-10-30T21:34:12Z</time>
      </trkpt>
      <trkpt lat="46.4572" lon="-1.63767">
        <ele>9</ele>
        <time>2023-10-30T21:36:36Z</time>
      </trkpt>
      <trkpt lat="46.45786" lon="-1.63724">
        <ele>12</ele>
        <time>2023-10-30T21:38:13Z</time>
      </trkpt>
      <trkpt lat="46.4582" lon="-1.63676">
        <ele>17</ele>
        <time>2023-10-30T21:39:16Z</time>
      </trkpt>
      <trkpt lat="46.46018" lon="-1.63551">
        <ele>23</ele>
        <time>2023-10-30T21:44:04Z</time>
      </trkpt>
      <trkpt lat="46.46109" lon="-1.63537">
        <ele>25</ele>
        <time>2023-10-30T21:46:06Z</time>
      </trkpt>
      <trkpt lat="46.46331" lon="-1.63572">
        <ele>27</ele>
        <time>2023-10-30T21:51:04Z</time>
      </trkpt>
    </trkseg>
  </trk>
</gpx>